Flight Track Log - Related Links

Times and Time Zones

All times are in EST time to prevent confusion due to time zone crossing. See the GGN7283 flight status page for this flight to view local times or setup timezone preferences in your user account.


Time Position Orientation Groundspeed Altitude Reporting Facility
EST Latitude Longitude Course Direction KTS MPH feet Rate Location/Type
Sun 08:35:22 PM 42.3167 -81.5333 96° East 520 598 39,000  Level Toronto Center
Sun 08:36:22 PM 42.3000 -81.3167 96° East 520 598 39,000  Level Toronto Center
Sun 08:37:22 PM 42.2833 -81.1500 98° East 510 587 39,000  Level Toronto Center
Sun 08:38:22 PM 42.2500 -80.9333 102° East 510 587 39,000 50 Level Toronto Center
Sun 08:39:22 PM 42.2500 -80.7667 90° East 510 587 39,100  Climbing Toronto Center
Sun 08:40:22 PM 42.2167 -80.5500 102° East 500 575 39,000 -100 Descending Toronto Center
Sun 08:41:22 PM 42.2000 -80.3833 98° East 490 564 38,900 -1,800 Descending Toronto Center
Sun 08:42:22 PM 42.1667 -80.2000 104° East 500 575 35,400 -1,950 Descending Toronto Center
Sun 08:43:22 PM 42.1500 -80.0167 97° East 520 598 35,000 -200 Descending Toronto Center
Sun 08:44:22 PM 42.1333 -79.8167 96° East 510 587 35,000  Level Toronto Center
Sun 08:45:22 PM 42.1000 -79.6333 104° East 500 575 35,000  Level Toronto Center
Sun 08:46:22 PM 42.0833 -79.4500 97° East 510 587 35,000  Level Toronto Center
Sun 08:47:22 PM 42.0500 -79.2667 104° East 500 575 35,000  Level Toronto Center
Sun 08:48:22 PM 42.0333 -79.0667 96° East 500 575 35,000  Level Toronto Center
Sun 08:49:22 PM 42.0000 -78.9000 105° East 500 575 35,000  Level Toronto Center
Sun 08:50:22 PM 41.9833 -78.7000 96° East 510 587 35,000  Level Toronto Center
Sun 08:51:22 PM 41.9667 -78.5167 97° East 510 587 35,000  Level Toronto Center
Sun 08:52:22 PM 41.9167 -78.3333 110° East 510 587 35,000  Level Toronto Center
Sun 08:53:22 PM 41.9000 -78.1500 97° East 520 598 35,000  Level Toronto Center
Sun 08:54:22 PM 41.8667 -77.9500 103° East 510 587 35,000  Level Toronto Center
Sun 08:55:22 PM 41.8500 -77.7833 98° East 500 575 35,000  Level Toronto Center
Sun 08:57:00 PM 41.9030 -77.7148 44° Northeast  Level Estimated
Sun 09:04:00 PM 42.1299 -77.4197 44° Northeast  Level Estimated
Sun 09:05:00 PM 42.1622 -77.3774 44° Northeast  Level Estimated
Sun 09:06:00 PM 42.1945 -77.3350 44° Northeast  Level Estimated
Sun 09:07:00 PM 42.2269 -77.2926 44° Northeast  Level Estimated
Sun 09:08:00 PM 42.2592 -77.2502 44° Northeast  Level Estimated
Sun 09:09:00 PM 42.2914 -77.2076 44° Northeast  Level Estimated
Sun 09:10:00 PM 42.3237 -77.1651 44° Northeast  Level Estimated
Sun 09:11:00 PM 42.3560 -77.1225 44° Northeast  Level Estimated
Sun 09:12:00 PM 42.3882 -77.0799 44° Northeast  Level Estimated
Sun 09:13:00 PM 42.4204 -77.0372 44° Northeast  Level Estimated
Sun 09:14:00 PM 42.4526 -76.9945 44° Northeast  Level Estimated
Sun 09:15:00 PM 42.4848 -76.9517 44° Northeast  Level Estimated
Sun 09:16:00 PM 42.5170 -76.9089 44° Northeast  Level Estimated
Sun 09:17:00 PM 42.5491 -76.8661 44° Northeast  Level Estimated
Sun 09:18:00 PM 42.5813 -76.8232 44° Northeast  Level Estimated
Sun 09:19:00 PM 42.6134 -76.7803 45° Northeast  Level Estimated
Sun 09:20:00 PM 42.6455 -76.7373 45° Northeast  Level Estimated
Sun 09:21:00 PM 42.6776 -76.6942 45° Northeast  Level Estimated
Sun 09:22:00 PM 42.7097 -76.6512 45° Northeast  Level Estimated
Sun 09:23:00 PM 42.7417 -76.6080 45° Northeast  Level Estimated
Sun 09:24:00 PM 42.7738 -76.5649 45° Northeast  Level Estimated
Sun 09:25:00 PM 42.8058 -76.5217 45° Northeast  Level Estimated
Sun 09:26:00 PM 42.8378 -76.4784 45° Northeast  Level Estimated
Sun 09:27:00 PM 42.8698 -76.4352 45° Northeast  Level Estimated
Sun 09:28:00 PM 42.9018 -76.3918 45° Northeast  Level Estimated
Sun 09:29:00 PM 42.9337 -76.3484 45° Northeast  Level Estimated
Sun 09:30:00 PM 42.9657 -76.3050 45° Northeast  Level Estimated
Sun 09:31:00 PM 42.9976 -76.2615 45° Northeast  Level Estimated
Sun 09:32:00 PM 43.0295 -76.2180 45° Northeast  Level Estimated
Sun 09:34:00 PM 43.0933 -76.1308 45° Northeast  Level Estimated
Sun 09:35:00 PM 43.1112 -76.1063 45° Northeast  Level Estimated
Sun 09:36:00 PM 43.1112 -76.1063 36° Northeast  Level Estimated
Sun 09:37:00 PM 43.1112 -76.1063 36° Northeast  Level Estimated
Sun 09:38:00 PM 43.1112 -76.1063 36° Northeast  Level Estimated
Sun 09:39:00 PM 43.1112 -76.1063 36° Northeast  Level Estimated
Sun 09:40:00 PM 43.1112 -76.1063 36° Northeast  Level Estimated
Sun 09:41:00 PM 43.1112 -76.1063 36° Northeast  Level Estimated
Sun 09:42:00 PM 43.1112 -76.1063 36° Northeast  Level Estimated
Sun 09:43:00 PM 43.1112 -76.1063 36° Northeast  Level Estimated
Sun 09:44:00 PM 43.1112 -76.1063 36° Northeast  Level Estimated
Sun 09:45:00 PM 43.1112 -76.1063 36° Northeast  Level Estimated
Sun 09:46:00 PM 43.1112 -76.1063 36° Northeast  Level Estimated
Sun 09:47:00 PM 43.1112 -76.1063 36° Northeast  Level Estimated
Sun 09:48:00 PM 43.1112 -76.1063 36° Northeast  Level Estimated
Sun 09:49:00 PM 43.1112 -76.1063 36° Northeast  Level Estimated
Sun 09:50:00 PM 43.1112 -76.1063 36° Northeast  Level Estimated
Sun 09:51:00 PM 43.1112 -76.1063 36° Northeast  Level Estimated
Sun 09:52:00 PM 43.1112 -76.1063 36° Northeast  Level Estimated

Login

Don't have an account? Register now (free) for customized features, flight alerts, and more!